Time;durP1;ratioP1;P1;durP2;ratioP2;P2;SDS_P1;SDS_P2;PMS_P1;PMS_P2;Temp;Humidity;BMP_temperature;BMP_pressure;BME280_temperature;BME280_humidity;BME280_pressure;Samples;Min_cycle;Max_cycle;Signal;HPM_P1;HPM_P2
2024/01/23 00:00:24;;;;;;;18.80;13.10;;;;;;;-0.88;100.00;101314.36;86873;281;138572;-66
2024/01/23 00:02:26;;;;;;;20.30;13.50;;;;;;;-0.87;100.00;101313.77;86901;281;22578;-70
2024/01/23 00:04:28;;;;;;;18.20;13.70;;;;;;;-0.92;100.00;101307.25;86873;281;137254;-67
2024/01/23 00:06:30;;;;;;;20.40;15.40;;;;;;;-0.91;100.00;101310.15;87216;270;25083;-67
2024/01/23 00:08:32;;;;;;;21.80;15.30;;;;;;;-0.98;100.00;101322.04;86745;270;137416;-66
2024/01/23 00:10:37;;;;;;;;;;;;;;;-1.02;100.00;101317.90;87179;271;25088;-68
2024/01/23 00:12:39;;;;;;;22.90;13.80;;;;;;;-0.97;100.00;101317.64;87027;280;125595;-67
2024/01/23 00:14:41;;;;;;;21.90;14.50;;;;;;;-0.94;100.00;101317.98;87207;277;22665;-70
2024/01/23 00:16:42;;;;;;;20.40;14.40;;;;;;;-0.92;100.00;101306.38;86941;281;136326;-68
2024/01/23 00:18:45;;;;;;;22.70;15.40;;;;;;;-0.93;100.00;101302.38;86863;270;25110;-69
2024/01/23 00:20:48;;;;;;;18.60;13.60;;;;;;;-0.88;100.00;101302.45;86914;281;137099;-68
2024/01/23 00:22:50;;;;;;;25.40;16.00;;;;;;;-0.92;100.00;101302.02;87126;281;24328;-68
2024/01/23 00:24:52;;;;;;;19.00;13.70;;;;;;;-0.95;100.00;101295.35;86809;270;137518;-70
2024/01/23 00:26:53;;;;;;;21.90;14.50;;;;;;;-0.97;100.00;101291.98;86859;274;25244;-67
2024/01/23 00:28:55;;;;;;;25.90;14.90;;;;;;;-0.98;100.00;101277.91;86676;277;138215;-68
2024/01/23 00:30:57;;;;;;;22.80;14.30;;;;;;;-0.91;100.00;101270.71;86987;281;25784;-68
2024/01/23 00:32:59;;;;;;;19.90;13.80;;;;;;;-0.88;100.00;101260.58;86904;274;137163;-70
2024/01/23 00:35:01;;;;;;;16.90;12.80;;;;;;;-0.84;100.00;101254.06;87033;281;22574;-67
2024/01/23 00:37:03;;;;;;;26.40;15.70;;;;;;;-0.83;100.00;101259.07;86967;273;136690;-69
2024/01/23 00:39:05;;;;;;;23.80;15.30;;;;;;;-0.86;100.00;101243.88;87027;265;22625;-66
2024/01/23 00:41:07;;;;;;;21.30;14.10;;;;;;;-0.92;100.00;101240.91;86966;273;137007;-70
2024/01/23 00:43:09;;;;;;;23.00;14.20;;;;;;;-0.95;100.00;101234.63;87072;281;25290;-67
2024/01/23 00:45:11;;;;;;;19.30;13.60;;;;;;;-0.90;100.00;101233.46;86768;273;138600;-69
2024/01/23 00:47:13;;;;;;;22.00;14.40;;;;;;;-0.84;100.00;101230.16;86901;281;22577;-66
2024/01/23 00:49:15;;;;;;;18.70;11.00;;;;;;;-0.82;100.00;101222.70;86859;273;136782;-69
2024/01/23 00:51:16;;;;;;;18.80;13.80;;;;;;;-0.79;100.00;101225.86;87021;273;24196;-68
2024/01/23 00:53:18;;;;;;;19.30;13.30;;;;;;;-0.80;100.00;101229.73;86807;268;137786;-67
2024/01/23 00:55:20;;;;;;;20.40;14.90;;;;;;;-0.86;100.00;101225.04;86924;276;24264;-67
2024/01/23 00:57:22;;;;;;;19.40;13.60;;;;;;;-0.87;100.00;101229.80;86894;266;137972;-67
2024/01/23 00:59:24;;;;;;;18.20;12.10;;;;;;;-0.83;100.00;101232.52;86883;270;23430;-67
2024/01/23 01:01:26;;;;;;;17.50;13.00;;;;;;;-0.77;100.00;101221.69;86907;274;136938;-70
2024/01/23 01:03:28;;;;;;;19.00;15.20;;;;;;;-0.73;100.00;101226.20;86927;273;23323;-67
2024/01/23 01:05:30;;;;;;;17.70;14.50;;;;;;;-0.76;100.00;101217.65;86883;280;136508;-69
2024/01/23 01:07:32;;;;;;;17.40;12.80;;;;;;;-0.78;100.00;101213.73;87099;268;24267;-68
2024/01/23 01:09:34;;;;;;;18.20;14.30;;;;;;;-0.80;100.00;101213.14;86923;271;136623;-66
2024/01/23 01:11:36;;;;;;;21.30;13.70;;;;;;;-0.76;100.00;101211.70;87025;269;23845;-71
2024/01/23 01:13:38;;;;;;;15.30;12.20;;;;;;;-0.69;100.00;101212.15;86866;274;137978;-69
2024/01/23 01:15:39;;;;;;;18.50;12.60;;;;;;;-0.66;100.00;101204.43;87067;273;24036;-70
2024/01/23 01:17:41;;;;;;;17.30;13.30;;;;;;;-0.68;100.00;101204.20;86880;274;137458;-66
2024/01/23 01:19:43;;;;;;;24.40;14.80;;;;;;;-0.71;100.00;101202.49;86959;270;24521;-72
2024/01/23 01:21:45;;;;;;;19.10;13.10;;;;;;;-0.82;100.00;101196.32;86912;273;139551;-71
2024/01/23 01:23:47;;;;;;;20.40;13.30;;;;;;;-0.84;100.00;101203.48;86926;265;26313;-70
2024/01/23 01:25:48;;;;;;;19.80;13.30;;;;;;;-0.83;100.00;101208.79;86860;274;138018;-71
2024/01/23 01:27:51;;;;;;;19.80;13.50;;;;;;;-0.77;100.00;101206.20;87105;273;24706;-70
2024/01/23 01:29:53;;;;;;;20.00;13.80;;;;;;;-0.72;100.00;101193.98;86839;281;137132;-69
2024/01/23 01:31:55;;;;;;;17.60;13.30;;;;;;;-0.70;100.00;101198.38;87091;281;22609;-69
2024/01/23 01:33:57;;;;;;;18.00;12.90;;;;;;;-0.73;100.00;101179.73;87243;280;136728;-69
2024/01/23 01:36:00;;;;;;;17.90;12.50;;;;;;;-0.83;100.00;101175.08;87060;270;22566;-69
2024/01/23 01:38:02;;;;;;;16.80;13.00;;;;;;;-0.85;100.00;101173.85;86803;282;137068;-67
2024/01/23 01:40:04;;;;;;;15.70;13.20;;;;;;;-0.82;100.00;101158.80;86879;275;138594;-65
2024/01/23 01:42:06;;;;;;;19.20;14.30;;;;;;;-0.75;100.00;101168.89;87261;270;25212;-67
2024/01/23 01:44:08;;;;;;;18.10;13.00;;;;;;;-0.73;100.00;101164.73;87048;278;137841;-69
2024/01/23 01:46:24;;;;;;;18.60;13.20;;;;;;;-0.75;100.00;101168.36;87119;282;22580;-68
2024/01/23 01:48:26;;;;;;;17.60;12.20;;;;;;;-0.73;100.00;101160.53;87049;274;137251;-66
2024/01/23 01:50:28;;;;;;;16.80;12.20;;;;;;;-0.71;100.00;101160.77;87034;274;22560;-70
2024/01/23 01:52:31;;;;;;;17.00;13.20;;;;;;;-0.69;100.00;101162.73;87047;274;136972;-67
2024/01/23 01:54:34;;;;;;;18.50;13.40;;;;;;;-0.76;100.00;101163.70;87060;269;23533;-69
2024/01/23 01:56:36;;;;;;;16.80;13.30;;;;;;;-0.82;100.00;101176.45;87092;281;137372;-71
2024/01/23 01:58:42;;;;;;;16.20;11.40;;;;;;;-0.78;100.00;101172.56;87259;277;25233;-67
2024/01/23 02:00:47;;;;;;;16.40;12.30;;;;;;;-0.76;100.00;101174.70;87039;281;138465;-70
2024/01/23 02:02:50;;;;;;;18.60;13.80;;;;;;;-0.73;100.00;101169.09;87164;269;25095;-67
2024/01/23 02:04:52;;;;;;;16.00;11.00;;;;;;;-0.70;100.00;101154.44;86968;281;138495;-67
2024/01/23 02:06:54;;;;;;;17.90;12.80;;;;;;;-0.77;100.00;101156.60;87509;275;22847;-68
2024/01/23 02:08:57;;;;;;;23.10;12.90;;;;;;;-0.81;100.00;101150.94;87226;271;136938;-70
2024/01/23 02:10:59;;;;;;;16.70;11.80;;;;;;;-0.81;100.00;101146.00;87315;271;25178;-66
2024/01/23 02:13:00;;;;;;;14.90;11.40;;;;;;;-0.75;100.00;101140.98;87185;274;138873;-67
2024/01/23 02:15:03;;;;;;;14.20;11.20;;;;;;;-0.73;100.00;101138.53;87236;274;22631;-70
2024/01/23 02:17:05;;;;;;;13.10;10.10;;;;;;;-0.67;100.00;101129.77;87220;271;138036;-66
2024/01/23 02:19:07;;;;;;;17.80;11.30;;;;;;;-0.69;100.00;101137.77;87346;271;22565;-66
2024/01/23 02:21:11;;;;;;;19.10;11.90;;;;;;;-0.74;100.00;101133.36;87215;274;137664;-67
2024/01/23 02:23:14;;;;;;;15.60;11.70;;;;;;;-0.76;100.00;101130.35;87758;271;25262;-67
2024/01/23 02:25:16;;;;;;;18.50;11.00;;;;;;;-0.79;100.00;101121.15;87265;271;137079;-66
2024/01/23 02:27:18;;;;;;;15.50;12.80;;;;;;;-0.76;100.00;101118.11;87266;267;24092;-66
2024/01/23 02:29:20;;;;;;;16.80;12.20;;;;;;;-0.71;100.00;101104.04;86909;273;137442;-66
2024/01/23 02:31:21;;;;;;;13.50;9.50;;;;;;;-0.64;100.00;101099.40;87166;279;22650;-66
2024/01/23 02:33:25;;;;;;;15.30;11.80;;;;;;;-0.66;100.00;101100.06;87161;271;137617;-65
2024/01/23 02:35:26;;;;;;;18.20;11.50;;;;;;;-0.74;100.00;101087.30;87264;267;24170;-67
2024/01/23 02:37:28;;;;;;;16.90;12.70;;;;;;;-0.82;100.00;101082.17;87198;267;137238;-68
2024/01/23 02:39:30;;;;;;;12.70;10.90;;;;;;;-0.74;100.00;101089.37;87306;267;22568;-66
2024/01/23 02:41:32;;;;;;;15.30;10.90;;;;;;;-0.70;100.00;101092.81;87211;279;137278;-65
2024/01/23 02:43:36;;;;;;;11.90;9.40;;;;;;;-0.67;100.00;101096.77;87183;271;22565;-66
2024/01/23 02:45:37;;;;;;;13.00;10.70;;;;;;;-0.65;100.00;101096.67;86942;273;137282;-68
2024/01/23 02:47:40;;;;;;;15.30;11.60;;;;;;;-0.64;100.00;101095.20;87109;275;22551;-67
2024/01/23 02:49:41;;;;;;;15.80;11.90;;;;;;;-0.67;100.00;101092.41;87178;267;136405;-66
2024/01/23 02:51:43;;;;;;;16.90;12.00;;;;;;;-0.69;100.00;101090.67;87273;279;22574;-68
2024/01/23 02:53:46;;;;;;;16.90;11.60;;;;;;;-0.71;100.00;101087.46;87010;268;136839;-68
2024/01/23 02:55:49;;;;;;;15.60;11.50;;;;;;;-0.66;100.00;101094.48;87373;279;22552;-66
2024/01/23 02:57:50;;;;;;;17.00;11.10;;;;;;;-0.60;100.00;101099.67;86959;279;138650;-66
2024/01/23 02:59:53;;;;;;;13.50;10.50;;;;;;;-0.58;100.00;101097.63;87282;271;24074;-68
2024/01/23 03:01:57;;;;;;;14.30;11.90;;;;;;;-0.52;100.00;101092.04;87178;263;137242;-67
2024/01/23 03:03:59;;;;;;;14.90;11.40;;;;;;;-0.54;100.00;101092.85;87337;263;22748;-66
2024/01/23 03:06:01;;;;;;;13.60;9.90;;;;;;;-0.60;100.00;101087.46;87547;275;136204;-66
2024/01/23 03:08:04;;;;;;;17.60;11.40;;;;;;;-0.61;100.00;101078.60;87208;272;137045;-68
2024/01/23 03:10:07;;;;;;;16.50;12.10;;;;;;;-0.57;100.00;101071.92;87335;271;22665;-68
2024/01/23 03:12:16;;;;;;;15.60;10.20;;;;;;;-0.52;100.00;101078.23;87266;278;137669;-68
2024/01/23 03:14:18;;;;;;;14.00;10.70;;;;;;;-0.53;100.00;101072.36;87276;269;25207;-65
2024/01/23 03:16:20;;;;;;;13.10;9.60;;;;;;;-0.52;100.00;101069.31;87076;266;137567;-68
2024/01/23 03:18:22;;;;;;;14.50;10.70;;;;;;;-0.54;100.00;101064.06;87485;268;22597;-66
2024/01/23 03:20:29;;;;;;;16.20;10.40;;;;;;;-0.51;100.00;101064.05;87142;279;137264;-72
2024/01/23 03:22:32;;;;;;;14.20;9.90;;;;;;;-0.48;100.00;101060.89;87128;271;22573;-67
2024/01/23 03:24:39;;;;;;;15.70;11.50;;;;;;;-0.54;100.00;101053.36;87070;267;138362;-66
2024/01/23 03:26:41;;;;;;;14.20;10.20;;;;;;;-0.58;100.00;101051.89;87290;271;25079;-67
2024/01/23 03:28:42;;;;;;;14.40;10.00;;;;;;;-0.58;100.00;101055.90;86912;271;136621;-67
2024/01/23 03:30:44;;;;;;;17.60;10.80;;;;;;;-0.55;100.00;101056.44;87554;279;25104;-65
2024/01/23 03:32:46;;;;;;;13.50;10.20;;;;;;;-0.54;100.00;101051.33;87178;278;137406;-67
2024/01/23 03:34:49;;;;;;;14.70;10.90;;;;;;;-0.51;100.00;101053.35;87049;269;24052;-64
2024/01/23 03:36:51;;;;;;;12.50;9.00;;;;;;;-0.50;100.00;101043.89;87440;275;137117;-66
2024/01/23 03:38:53;;;;;;;12.60;10.40;;;;;;;-0.48;100.00;101046.55;87288;267;22561;-66
2024/01/23 03:40:55;;;;;;;14.50;11.10;;;;;;;-0.46;100.00;101048.65;87201;271;138967;-67
2024/01/23 03:42:57;;;;;;;12.70;10.10;;;;;;;-0.43;100.00;101054.95;87216;278;25198;-65
2024/01/23 03:44:59;;;;;;;12.70;10.40;;;;;;;-0.48;100.00;101055.94;87147;271;137741;-66
2024/01/23 03:47:02;;;;;;;12.40;10.60;;;;;;;-0.51;100.00;101063.16;87234;278;24055;-66
2024/01/23 03:49:04;;;;;;;12.40;10.60;;;;;;;-0.48;100.00;101066.98;87178;271;137400;-68
2024/01/23 03:51:07;;;;;;;14.90;9.80;;;;;;;-0.42;100.00;101071.62;87158;271;22566;-64
2024/01/23 03:53:09;;;;;;;12.40;9.90;;;;;;;-0.37;100.00;101073.24;87147;269;136665;-67
2024/01/23 03:55:11;;;;;;;13.80;10.40;;;;;;;-0.36;100.00;101070.91;87255;274;22592;-67
2024/01/23 03:57:13;;;;;;;16.00;12.80;;;;;;;-0.36;100.00;101072.98;87085;271;136696;-67
2024/01/23 03:59:15;;;;;;;12.60;9.70;;;;;;;-0.42;100.00;101073.73;87298;271;23703;-69
2024/01/23 04:01:17;;;;;;;12.70;10.00;;;;;;;-0.41;100.00;101065.11;87120;270;137704;-67
2024/01/23 04:03:19;;;;;;;16.00;11.00;;;;;;;-0.37;100.00;101068.01;88436;274;22639;-65
2024/01/23 04:05:21;;;;;;;14.30;10.10;;;;;;;-0.36;100.00;101067.58;87257;278;137397;-69
2024/01/23 04:07:23;;;;;;;13.90;11.30;;;;;;;-0.33;100.00;101067.41;86973;268;25242;-69
2024/01/23 04:09:27;;;;;;;12.20;9.90;;;;;;;-0.31;100.00;101074.55;86948;271;137464;-69
2024/01/23 04:11:30;;;;;;;13.30;10.30;;;;;;;-0.29;100.00;101076.90;87957;275;22606;-66
2024/01/23 04:13:32;;;;;;;12.70;10.20;;;;;;;-0.33;100.00;101073.36;88724;272;136093;-70
2024/01/23 04:15:34;;;;;;;12.80;11.40;;;;;;;-0.37;100.00;101072.88;88195;275;26319;-66
2024/01/23 04:17:39;;;;;;;14.60;11.20;;;;;;;-0.39;100.00;101072.86;86943;280;137173;-68
2024/01/23 04:19:41;;;;;;;;;;;;;;;-0.38;100.00;101075.75;88377;264;24879;-68
2024/01/23 04:21:43;;;;;;;16.20;10.80;;;;;;;-0.35;100.00;101073.10;87074;269;123367;-67
2024/01/23 04:23:45;;;;;;;15.70;11.20;;;;;;;-0.33;100.00;101067.20;87752;269;22593;-67
2024/01/23 04:25:47;;;;;;;12.50;10.30;;;;;;;-0.29;100.00;101069.21;86903;279;137307;-69
2024/01/23 04:27:49;;;;;;;12.80;10.10;;;;;;;-0.29;100.00;101064.30;87196;278;25122;-67
2024/01/23 04:29:52;;;;;;;14.00;10.90;;;;;;;-0.34;100.00;101061.54;88106;262;136241;-64
2024/01/23 04:31:53;;;;;;;13.50;11.20;;;;;;;-0.38;100.00;101062.30;87132;269;24571;-66
2024/01/23 04:33:55;;;;;;;12.70;10.50;;;;;;;-0.38;100.00;101058.82;87085;269;137089;-67
2024/01/23 04:35:57;;;;;;;13.20;9.80;;;;;;;-0.35;100.00;101058.26;87160;270;25286;-69
2024/01/23 04:38:00;;;;;;;11.10;9.20;;;;;;;-0.32;100.00;101055.64;87075;269;136657;-65
2024/01/23 04:40:07;;;;;;;10.90;9.80;;;;;;;-0.31;100.00;101054.67;87109;269;138786;-66
2024/01/23 04:42:08;;;;;;;12.90;10.90;;;;;;;-0.33;100.00;101055.66;89072;266;22568;-66
2024/01/23 04:44:10;;;;;;;13.40;10.50;;;;;;;-0.34;100.00;101055.94;87089;270;136732;-66
2024/01/23 04:46:12;;;;;;;14.40;11.60;;;;;;;-0.37;100.00;101053.69;87178;271;22578;-66
2024/01/23 04:48:14;;;;;;;13.80;10.70;;;;;;;-0.36;100.00;101059.58;86935;280;138320;-68
2024/01/23 04:50:16;;;;;;;15.20;11.60;;;;;;;-0.32;100.00;101056.00;87216;271;24618;-67
2024/01/23 04:52:18;;;;;;;14.20;11.00;;;;;;;-0.28;100.00;101050.47;86889;272;137839;-66
2024/01/23 04:54:20;;;;;;;12.40;9.80;;;;;;;-0.27;100.00;101057.39;87188;268;25217;-66
2024/01/23 04:56:24;;;;;;;14.20;12.20;;;;;;;-0.27;100.00;101060.31;88023;263;136983;-67
2024/01/23 04:58:26;;;;;;;13.00;10.50;;;;;;;-0.27;100.00;101065.23;87075;271;22576;-67
2024/01/23 05:00:28;;;;;;;14.00;12.20;;;;;;;-0.34;100.00;101060.30;87089;270;136996;-66
2024/01/23 05:02:30;;;;;;;16.00;11.10;;;;;;;-0.36;100.00;101061.48;87226;271;22638;-68
2024/01/23 05:04:32;;;;;;;18.40;11.90;;;;;;;-0.33;100.00;101054.83;87763;267;137220;-66
2024/01/23 05:06:34;;;;;;;11.80;10.40;;;;;;;-0.26;100.00;101058.16;88796;275;25162;-66
2024/01/23 05:08:36;;;;;;;15.90;10.80;;;;;;;-0.20;100.00;101061.31;87156;274;137199;-69
2024/01/23 05:10:39;;;;;;;13.30;11.10;;;;;;;-0.17;100.00;101045.23;86926;279;22568;-66
2024/01/23 05:12:42;;;;;;;14.10;11.00;;;;;;;-0.18;100.00;101045.66;87222;271;137985;-66
2024/01/23 05:14:44;;;;;;;14.70;10.90;;;;;;;-0.25;100.00;101046.44;87124;275;22580;-66
2024/01/23 05:16:46;;;;;;;14.20;11.50;;;;;;;-0.29;100.00;101041.13;87007;278;136884;-66
2024/01/23 05:18:48;;;;;;;15.30;11.20;;;;;;;-0.27;100.00;101038.20;87210;271;25117;-67
2024/01/23 05:20:50;;;;;;;12.60;10.00;;;;;;;-0.24;100.00;101033.10;87191;267;137543;-67
2024/01/23 05:22:52;;;;;;;12.60;10.30;;;;;;;-0.23;100.00;101033.35;87216;271;22721;-67
2024/01/23 05:24:54;;;;;;;15.90;12.50;;;;;;;-0.21;100.00;101037.58;87295;272;137217;-67
2024/01/23 05:26:56;;;;;;;14.50;11.00;;;;;;;-0.17;100.00;101033.73;87253;271;22558;-65
2024/01/23 05:28:57;;;;;;;19.10;11.50;;;;;;;-0.16;100.00;101036.45;87119;274;137069;-65
2024/01/23 05:30:59;;;;;;;15.60;12.80;;;;;;;-0.20;100.00;101036.67;87155;278;24126;-66
2024/01/23 05:33:01;;;;;;;15.10;11.60;;;;;;;-0.26;100.00;101036.38;87155;270;136512;-64
2024/01/23 05:35:04;;;;;;;14.10;11.60;;;;;;;-0.27;100.00;101036.09;87198;269;24449;-63
2024/01/23 05:37:06;;;;;;;14.10;11.00;;;;;;;-0.21;100.00;101034.66;86996;270;137489;-66
2024/01/23 05:39:09;;;;;;;14.60;11.50;;;;;;;-0.15;100.00;101037.04;87152;271;23082;-67
2024/01/23 05:41:12;;;;;;;20.30;13.20;;;;;;;-0.14;100.00;101035.55;87236;271;137536;-71
2024/01/23 05:43:14;;;;;;;15.30;11.30;;;;;;;-0.20;100.00;101035.96;87240;267;24001;-69
2024/01/23 05:45:16;;;;;;;14.90;11.40;;;;;;;-0.21;100.00;101030.80;87125;271;136743;-62
2024/01/23 05:47:18;;;;;;;15.30;12.20;;;;;;;-0.24;100.00;101023.46;87312;267;25096;-61
2024/01/23 05:49:19;;;;;;;18.20;12.10;;;;;;;-0.22;100.00;101029.28;87236;266;137342;-63
2024/01/23 05:51:22;;;;;;;14.30;11.80;;;;;;;-0.16;100.00;101027.72;87278;271;22575;-62
2024/01/23 05:53:24;;;;;;;13.00;10.90;;;;;;;-0.17;100.00;101030.33;87372;275;137491;-61
2024/01/23 05:55:27;;;;;;;14.00;11.40;;;;;;;-0.12;100.00;101021.64;87268;278;23999;-62
2024/01/23 05:57:29;;;;;;;16.40;12.10;;;;;;;-0.13;100.00;101019.08;87065;278;138571;-62
2024/01/23 05:59:32;;;;;;;15.40;11.30;;;;;;;-0.18;100.00;101024.31;87230;279;22564;-63
2024/01/23 06:01:35;;;;;;;16.60;13.30;;;;;;;-0.23;100.00;101026.69;87254;271;138391;-63
2024/01/23 06:03:39;;;;;;;15.90;12.60;;;;;;;-0.25;100.00;101020.90;87204;269;22538;-63
2024/01/23 06:05:41;;;;;;;20.30;11.40;;;;;;;-0.21;100.00;101027.66;87229;270;137481;-63
2024/01/23 06:07:49;;;;;;;18.00;11.50;;;;;;;-0.19;100.00;101022.30;87183;269;25197;-64
2024/01/23 06:09:52;;;;;;;14.70;11.50;;;;;;;-0.17;100.00;101013.59;87190;271;137849;-62
2024/01/23 06:11:54;;;;;;;14.50;11.20;;;;;;;-0.17;100.00;101013.23;87387;279;23735;-64
2024/01/23 06:13:56;;;;;;;13.90;11.40;;;;;;;-0.15;100.00;101006.00;87288;270;136827;-61
2024/01/23 06:15:58;;;;;;;16.00;11.20;;;;;;;-0.14;100.00;101009.25;87110;270;25134;-65
2024/01/23 06:18:00;;;;;;;16.30;12.10;;;;;;;-0.17;100.00;100998.95;87123;271;138612;-64
2024/01/23 06:20:07;;;;;;;15.80;10.70;;;;;;;-0.16;100.00;101010.05;87025;280;25242;-66
2024/01/23 06:22:10;;;;;;;15.80;11.60;;;;;;;-0.17;100.00;100999.46;87052;272;22564;-62
2024/01/23 06:24:16;;;;;;;14.60;10.60;;;;;;;-0.14;100.00;100996.30;87078;271;137550;-62
2024/01/23 06:26:17;;;;;;;14.40;9.50;;;;;;;-0.12;100.00;100994.93;87159;279;22557;-64
2024/01/23 06:28:19;;;;;;;15.50;11.30;;;;;;;-0.10;100.00;100997.44;87046;271;137400;-65
2024/01/23 06:30:21;;;;;;;12.70;10.00;;;;;;;-0.07;100.00;100993.19;86549;267;767444;-63
2024/01/23 06:32:24;;;;;;;15.40;11.60;;;;;;;-0.07;100.00;100995.45;87062;271;136947;-65
2024/01/23 06:34:26;;;;;;;14.40;12.20;;;;;;;-0.08;100.00;101000.41;87087;267;23965;-64
2024/01/23 06:36:29;;;;;;;15.30;11.50;;;;;;;-0.08;100.00;101003.58;87297;264;137354;-62
2024/01/23 06:38:31;;;;;;;14.90;11.00;;;;;;;-0.01;100.00;101003.62;87439;274;23633;-64
2024/01/23 06:40:32;;;;;;;14.20;11.70;;;;;;;0.03;100.00;101005.08;87073;267;137473;-76
2024/01/23 06:42:35;;;;;;;14.10;11.00;;;;;;;0.08;100.00;101008.90;87142;267;25255;-66
2024/01/23 06:44:37;;;;;;;18.00;12.80;;;;;;;0.11;100.00;101003.34;87121;275;137293;-65
2024/01/23 06:46:39;;;;;;;18.80;12.40;;;;;;;0.17;100.00;100998.74;87116;271;22546;-68
2024/01/23 06:48:41;;;;;;;14.60;10.00;;;;;;;0.25;100.00;101000.96;87062;267;138626;-67
2024/01/23 06:50:44;;;;;;;17.70;13.30;;;;;;;0.26;100.00;100999.31;87147;271;25115;-71
2024/01/23 06:52:46;;;;;;;17.10;11.90;;;;;;;0.21;100.00;101004.73;87070;271;137569;-65
2024/01/23 06:54:47;;;;;;;16.00;11.60;;;;;;;0.17;100.00;101006.77;87131;267;22565;-66
2024/01/23 06:56:50;;;;;;;15.90;12.00;;;;;;;0.18;100.00;101004.41;87029;272;137347;-67
2024/01/23 06:58:52;;;;;;;15.50;11.60;;;;;;;0.19;100.00;101003.98;87306;275;25127;-66
2024/01/23 07:00:54;;;;;;;16.40;12.30;;;;;;;0.24;100.00;101000.88;86999;275;137335;-68
2024/01/23 07:02:56;;;;;;;16.20;11.90;;;;;;;0.23;100.00;100998.14;87140;276;22558;-68
2024/01/23 07:04:58;;;;;;;14.40;11.60;;;;;;;0.31;100.00;101002.86;87053;279;138635;-69
2024/01/23 07:06:59;;;;;;;13.50;10.70;;;;;;;0.35;100.00;101007.42;86933;275;22639;-66
2024/01/23 07:09:03;;;;;;;14.10;12.10;;;;;;;0.35;100.00;101005.02;86873;271;136403;-68
2024/01/23 07:11:05;;;;;;;15.20;9.90;;;;;;;0.30;100.00;101009.39;86949;271;22571;-67
2024/01/23 07:13:06;;;;;;;13.60;10.90;;;;;;;0.25;100.00;101008.49;87007;272;136601;-67
2024/01/23 07:15:08;;;;;;;16.50;12.40;;;;;;;0.30;100.00;101005.91;87017;275;22559;-70
2024/01/23 07:17:10;;;;;;;16.10;12.20;;;;;;;0.34;100.00;101010.69;86945;268;138112;-68
2024/01/23 07:19:12;;;;;;;15.20;10.80;;;;;;;0.37;100.00;101016.20;87482;267;22846;-68
2024/01/23 07:21:15;;;;;;;12.00;10.60;;;;;;;0.43;100.00;101008.47;87245;266;137183;-65
2024/01/23 07:23:17;;;;;;;15.30;11.00;;;;;;;0.43;100.00;101016.70;87404;271;24010;-63
2024/01/23 07:25:19;;;;;;;14.70;10.70;;;;;;;0.40;100.00;101015.71;87279;271;136553;-65
2024/01/23 07:27:21;;;;;;;14.30;11.10;;;;;;;0.35;100.00;101015.51;87285;263;23541;-67
2024/01/23 07:29:22;;;;;;;12.30;10.70;;;;;;;0.38;100.00;101016.15;86997;268;138428;-64
2024/01/23 07:31:24;;;;;;;12.60;10.70;;;;;;;0.47;100.00;101013.80;87181;271;25223;-67
2024/01/23 07:33:28;;;;;;;15.40;11.40;;;;;;;0.52;100.00;101019.75;87098;279;137222;-64
2024/01/23 07:35:30;;;;;;;16.60;12.50;;;;;;;0.54;100.00;101015.93;87221;279;27240;-64
2024/01/23 07:37:32;;;;;;;13.10;11.40;;;;;;;0.56;100.00;101014.58;87113;279;137218;-63
2024/01/23 07:39:33;;;;;;;13.30;11.50;;;;;;;0.56;100.00;101016.50;87212;267;22574;-65
2024/01/23 07:41:36;;;;;;;14.50;10.50;;;;;;;0.54;100.00;101022.36;87299;271;138070;-65
2024/01/23 07:43:37;;;;;;;14.40;11.80;;;;;;;0.55;100.00;101026.90;87328;278;22562;-64
2024/01/23 07:45:39;;;;;;;14.90;11.00;;;;;;;0.57;100.00;101032.67;87263;274;137127;-65
2024/01/23 07:47:41;;;;;;;16.40;12.70;;;;;;;0.65;100.00;101031.83;87268;267;25200;-65
2024/01/23 07:49:43;;;;;;;13.60;10.60;;;;;;;0.70;100.00;101039.52;87340;271;137074;-63
2024/01/23 07:51:50;;;;;;;18.10;10.60;;;;;;;0.73;100.00;101039.95;87222;267;22684;-66
2024/01/23 07:53:52;;;;;;;14.20;10.70;;;;;;;0.72;100.00;101037.98;87192;271;136577;-65
2024/01/23 07:55:54;;;;;;;17.60;10.30;;;;;;;0.67;100.00;101038.34;87178;267;24091;-66
2024/01/23 07:57:56;;;;;;;14.10;11.20;;;;;;;0.68;100.00;101037.02;87195;279;136631;-65
2024/01/23 07:59:58;;;;;;;13.70;10.20;;;;;;;0.75;100.00;101035.44;87253;272;25194;-67
2024/01/23 08:01:59;;;;;;;17.80;11.30;;;;;;;0.79;100.00;101040.60;87152;278;137080;-64
2024/01/23 08:04:02;;;;;;;12.10;10.10;;;;;;;0.81;100.00;101039.96;87262;271;22691;-65
2024/01/23 08:06:06;;;;;;;19.40;12.60;;;;;;;0.78;100.00;101039.27;87213;263;26268;-68
2024/01/23 08:08:07;;;;;;;14.80;13.20;;;;;;;0.75;100.00;101028.64;87205;267;136756;-66
2024/01/23 08:10:10;;;;;;;14.80;11.70;;;;;;;0.72;100.00;101030.12;87387;270;25799;-65
2024/01/23 08:12:12;;;;;;;16.80;12.00;;;;;;;0.72;100.00;101025.18;87226;266;136893;-65
2024/01/23 08:14:14;;;;;;;14.20;11.50;;;;;;;0.77;100.00;101026.74;87268;270;22568;-66
2024/01/23 08:16:16;;;;;;;16.10;11.90;;;;;;;0.82;100.00;101025.20;87179;270;137396;-64
2024/01/23 08:18:18;;;;;;;14.40;10.80;;;;;;;0.88;100.00;101035.78;87337;271;25115;-64
2024/01/23 08:20:21;;;;;;;13.60;10.50;;;;;;;0.92;100.00;101032.73;87256;266;136824;-67
2024/01/23 08:22:23;;;;;;;15.50;11.90;;;;;;;0.92;100.00;101025.90;87410;271;24117;-68
2024/01/23 08:24:29;;;;;;;13.30;9.90;;;;;;;0.90;100.00;101021.26;87217;271;136824;-67
2024/01/23 08:26:32;;;;;;;12.20;10.70;;;;;;;0.88;100.00;101020.40;87194;273;22627;-69
2024/01/23 08:28:34;;;;;;;15.60;11.70;;;;;;;0.93;100.00;101020.54;87355;271;137358;-66
2024/01/23 08:30:36;;;;;;;13.00;9.50;;;;;;;1.04;100.00;101021.02;87314;278;23755;-66
2024/01/23 08:32:37;;;;;;;12.50;10.60;;;;;;;1.01;100.00;101017.39;87173;271;136714;-65
2024/01/23 08:34:40;;;;;;;12.90;11.40;;;;;;;0.99;100.00;101016.80;87246;279;25111;-69
2024/01/23 08:36:42;;;;;;;12.40;10.60;;;;;;;0.92;100.00;101012.91;87171;272;136474;-71
2024/01/23 08:38:44;;;;;;;13.80;10.40;;;;;;;0.90;100.00;101019.52;87259;279;24951;-66
2024/01/23 08:40:46;;;;;;;11.90;10.30;;;;;;;1.01;100.00;101022.47;87223;271;136912;-65
2024/01/23 08:42:48;;;;;;;17.90;10.70;;;;;;;1.08;100.00;101021.40;87421;278;23762;-67
2024/01/23 08:44:50;;;;;;;12.90;10.40;;;;;;;1.14;100.00;101020.80;87225;274;137282;-64
2024/01/23 08:46:54;;;;;;;15.30;12.00;;;;;;;1.16;100.00;101024.69;87233;274;24625;-60
2024/01/23 08:48:56;;;;;;;14.00;11.40;;;;;;;1.15;100.00;101022.68;87151;269;137540;-70
2024/01/23 08:50:58;;;;;;;14.00;11.30;;;;;;;1.13;100.00;101018.07;87369;278;25092;-68
2024/01/23 08:53:01;;;;;;;14.70;11.00;;;;;;;1.15;100.00;101020.17;87263;270;137563;-76
2024/01/23 08:55:03;;;;;;;12.10;10.10;;;;;;;1.20;100.00;101019.48;87264;266;25220;-67
2024/01/23 08:57:05;;;;;;;13.00;10.50;;;;;;;1.26;100.00;101024.64;87264;271;137253;-65
2024/01/23 08:59:07;;;;;;;9.40;8.30;;;;;;;1.30;100.00;101021.60;87271;278;22567;-63
2024/01/23 09:01:09;;;;;;;15.40;11.30;;;;;;;1.26;100.00;101026.23;87184;278;136169;-64
2024/01/23 09:03:11;;;;;;;14.40;11.80;;;;;;;1.22;100.00;101028.16;87089;272;25092;-64
2024/01/23 09:05:14;;;;;;;13.30;11.30;;;;;;;1.19;100.00;101028.48;87179;269;136615;-64
2024/01/23 09:07:17;;;;;;;14.80;10.70;;;;;;;1.15;100.00;101021.09;87376;269;25249;-64
2024/01/23 09:09:19;;;;;;;12.40;9.30;;;;;;;1.15;100.00;101026.70;87293;266;137295;-67
2024/01/23 09:11:21;;;;;;;11.70;9.80;;;;;;;1.25;100.00;101023.89;87225;271;24146;-64
2024/01/23 09:13:31;;;;;;;12.70;10.60;;;;;;;1.29;100.00;101029.17;87147;279;137556;-64
2024/01/23 09:15:34;;;;;;;15.60;10.80;;;;;;;1.23;100.00;101029.48;87292;275;25121;-62